createdAt,value
2023-03-03T00:00:35.810Z,99522.91
2023-03-03T00:02:09.002Z,99517.63
2023-03-03T00:03:42.537Z,99516.78
2023-03-03T00:05:17.132Z,99513.28
2023-03-03T00:06:50.256Z,99515.16
2023-03-03T00:08:23.103Z,99502.91
2023-03-03T00:09:56.586Z,99507.31
2023-03-03T00:11:29.662Z,99509.94
2023-03-03T00:13:03.104Z,99501.25
2023-03-03T00:14:36.157Z,99507.31
2023-03-03T00:16:17.106Z,99498.66
2023-03-03T00:17:49.432Z,99493.34
2023-03-03T00:19:23.247Z,99500.34
2023-03-03T00:20:57.050Z,99495.09
2023-03-03T00:22:32.958Z,99495.88
2023-03-03T00:24:24.160Z,99487.97
2023-03-03T00:25:56.839Z,99487.97
2023-03-03T00:27:32.553Z,99476.63
2023-03-03T00:29:29.176Z,99479.25
2023-03-03T00:31:03.749Z,99485.41
2023-03-03T00:32:47.129Z,99473.09
2023-03-03T00:34:26.892Z,99464.44
2023-03-03T00:36:22.686Z,99465.22
2023-03-03T00:37:57.850Z,99462.63
2023-03-03T00:39:34.711Z,99474.00
2023-03-03T00:41:17.673Z,99466.97
2023-03-03T00:42:53.736Z,99459.94
2023-03-03T00:44:41.307Z,99445.13
2023-03-03T00:46:19.488Z,99439.78
2023-03-03T00:47:54.696Z,99440.63
2023-03-03T00:49:28.416Z,99440.56
2023-03-03T00:51:03.267Z,99441.44
2023-03-03T00:52:37.698Z,99429.22
2023-03-03T00:54:10.929Z,99418.81
2023-03-03T00:55:44.617Z,99436.25
2023-03-03T00:57:16.903Z,99432.75
2023-03-03T00:58:50.432Z,99428.44
2023-03-03T01:00:25.104Z,99431.09
2023-03-03T01:01:58.346Z,99420.72
2023-03-03T01:03:33.458Z,99436.34
2023-03-03T01:05:06.622Z,99427.59
2023-03-03T01:06:39.939Z,99426.66
2023-03-03T01:08:12.374Z,99424.09
2023-03-03T01:09:45.898Z,99424.00
2023-03-03T01:11:23.061Z,99429.25
2023-03-03T01:12:55.773Z,99427.50
2023-03-03T01:14:29.001Z,99418.97
2023-03-03T01:16:03.544Z,99421.44
2023-03-03T01:17:36.194Z,99427.69
2023-03-03T01:19:10.775Z,99432.06
2023-03-03T01:20:44.143Z,99418.84
2023-03-03T01:22:17.457Z,99424.00
2023-03-03T01:23:50.645Z,99416.09
2023-03-03T01:25:24.273Z,99422.13
2023-03-03T01:26:56.388Z,99412.50
2023-03-03T01:28:30.125Z,99415.16
2023-03-03T01:30:02.694Z,99415.16
2023-03-03T01:31:35.961Z,99405.47
2023-03-03T01:33:09.388Z,99422.16
2023-03-03T01:34:44.060Z,99410.75
2023-03-03T01:36:17.182Z,99413.34
2023-03-03T01:37:50.435Z,99408.97
2023-03-03T01:39:23.642Z,99404.56
2023-03-03T01:40:58.253Z,99405.38
2023-03-03T01:42:31.737Z,99404.47
2023-03-03T01:44:06.597Z,99409.84
2023-03-03T01:46:06.965Z,99409.84
2023-03-03T01:47:40.686Z,99404.56
2023-03-03T01:49:17.273Z,99406.59
2023-03-03T01:50:56.732Z,99399.53
2023-03-03T01:52:37.208Z,99397.78
2023-03-03T01:54:16.076Z,99402.97
2023-03-03T01:55:51.494Z,99395.91
2023-03-03T01:57:29.705Z,99401.09
2023-03-03T01:59:07.173Z,99401.09
2023-03-03T02:00:43.504Z,99399.22
2023-03-03T02:02:16.965Z,99397.50
2023-03-03T02:03:50.237Z,99397.56
2023-03-03T02:05:24.254Z,99399.38
2023-03-03T02:07:02.043Z,99398.56
2023-03-03T02:08:40.740Z,99394.22
2023-03-03T02:10:15.438Z,99389.03
2023-03-03T02:11:52.693Z,99394.25
2023-03-03T02:13:25.803Z,99397.78
2023-03-03T02:15:01.760Z,99400.38
2023-03-03T02:16:35.055Z,99397.78
2023-03-03T02:18:12.108Z,99396.84
2023-03-03T02:19:54.153Z,99395.06
2023-03-03T02:21:28.404Z,99396.81
2023-03-03T02:23:09.011Z,99399.38
2023-03-03T02:24:46.441Z,99403.72
2023-03-03T02:26:23.907Z,99402.97
2023-03-03T02:28:03.349Z,99402.97
2023-03-03T02:29:36.650Z,99406.47
2023-03-03T02:31:15.614Z,99415.22
2023-03-03T02:32:49.882Z,99404.69
2023-03-03T02:34:23.103Z,99408.28
2023-03-03T02:35:55.768Z,99403.09
2023-03-03T02:37:30.218Z,99395.19
2023-03-03T02:39:08.779Z,99396.91
2023-03-03T02:40:44.843Z,99395.44
2023-03-03T02:42:23.186Z,99398.19
2023-03-03T02:44:02.419Z,99400.81
2023-03-03T02:45:36.409Z,99395.56
2023-03-03T02:47:10.113Z,99403.44
2023-03-03T02:48:42.711Z,99398.19
2023-03-03T02:50:16.461Z,99400.75
2023-03-03T02:51:49.935Z,99396.47
2023-03-03T02:53:22.387Z,99403.44
2023-03-03T02:54:55.536Z,99413.16
2023-03-03T02:56:28.375Z,99403.50
2023-03-03T02:58:02.872Z,99414.91
2023-03-03T02:59:36.528Z,99412.28
2023-03-03T03:01:27.636Z,99414.16
2023-03-03T03:03:01.418Z,99405.41
2023-03-03T03:04:34.643Z,99405.41
2023-03-03T03:06:08.012Z,99403.56
2023-03-03T03:07:41.714Z,99417.53
2023-03-03T03:09:16.754Z,99406.13
2023-03-03T03:10:51.720Z,99405.31
2023-03-03T03:12:25.414Z,99406.16
2023-03-03T03:14:02.492Z,99402.69
2023-03-03T03:15:36.891Z,99413.22
2023-03-03T03:17:11.826Z,99415.81
2023-03-03T03:18:45.317Z,99412.34
2023-03-03T03:20:18.930Z,99408.81
2023-03-03T03:21:52.295Z,99408.03
2023-03-03T03:23:26.546Z,99410.72
2023-03-03T03:24:59.752Z,99410.69
2023-03-03T03:26:33.069Z,99402.78
2023-03-03T03:28:05.922Z,99405.38
2023-03-03T03:29:40.882Z,99404.44
2023-03-03T03:31:15.174Z,99391.31
2023-03-03T03:32:48.463Z,99398.38
2023-03-03T03:34:22.075Z,99401.06
2023-03-03T03:35:56.869Z,99388.78
2023-03-03T03:37:31.092Z,99379.16
2023-03-03T03:39:06.526Z,99385.22
2023-03-03T03:40:42.850Z,99401.00
2023-03-03T03:42:16.000Z,99379.16
2023-03-03T03:43:49.698Z,99379.41
2023-03-03T03:45:24.296Z,99388.19
2023-03-03T03:46:58.186Z,99382.94
2023-03-03T03:48:31.781Z,99391.69
2023-03-03T03:50:06.796Z,99385.50
2023-03-03T03:51:41.984Z,99387.22
2023-03-03T03:53:19.951Z,99377.59
2023-03-03T03:54:53.593Z,99372.41
2023-03-03T03:56:26.971Z,99384.66
2023-03-03T03:58:02.919Z,99377.59
2023-03-03T03:59:35.482Z,99370.59
2023-03-03T04:01:10.272Z,99375.88
2023-03-03T04:02:49.243Z,99372.47
2023-03-03T04:04:24.650Z,99371.72
2023-03-03T04:05:58.170Z,99369.03
2023-03-03T04:07:31.761Z,99368.19
2023-03-03T04:09:04.795Z,99374.25
2023-03-03T04:10:38.848Z,99365.50
2023-03-03T04:12:13.152Z,99367.22
2023-03-03T04:13:46.341Z,99359.38
2023-03-03T04:15:20.009Z,99360.25
2023-03-03T04:16:55.700Z,99367.28
2023-03-03T04:18:29.707Z,99368.16
2023-03-03T04:20:03.753Z,99355.09
2023-03-03T04:21:37.614Z,99369.94
2023-03-03T04:23:10.882Z,99364.66
2023-03-03T04:24:44.187Z,99363.75
2023-03-03T04:26:17.472Z,99365.50
2023-03-03T04:27:52.273Z,99373.38
2023-03-03T04:29:27.344Z,99365.50
2023-03-03T04:31:00.624Z,99368.94
2023-03-03T04:32:37.008Z,99369.00
2023-03-03T04:34:11.801Z,99372.56
2023-03-03T04:35:45.730Z,99365.59
2023-03-03T04:37:19.017Z,99368.19
2023-03-03T04:38:52.580Z,99366.41
2023-03-03T04:40:26.518Z,99373.44
2023-03-03T04:41:59.899Z,99369.94
2023-03-03T04:43:33.948Z,99368.25
2023-03-03T04:45:08.058Z,99376.16
2023-03-03T04:46:41.849Z,99368.22
2023-03-03T04:48:17.093Z,99376.06
2023-03-03T04:49:49.555Z,99376.81
2023-03-03T04:51:22.947Z,99372.47
2023-03-03T04:52:56.297Z,99376.16
2023-03-03T04:54:28.697Z,99378.78
2023-03-03T04:56:02.135Z,99376.16
2023-03-03T04:57:34.315Z,99378.75
2023-03-03T04:59:07.860Z,99379.56
2023-03-03T05:00:41.147Z,99375.16
2023-03-03T05:02:15.974Z,99376.06
2023-03-03T05:03:50.931Z,99387.41
2023-03-03T05:05:24.442Z,99383.03
2023-03-03T05:06:57.648Z,99391.69
2023-03-03T05:08:31.151Z,99384.69
2023-03-03T05:10:04.409Z,99391.75
2023-03-03T05:11:37.734Z,99381.31
2023-03-03T05:13:11.078Z,99387.41
2023-03-03T05:14:44.621Z,99383.03
2023-03-03T05:16:16.845Z,99388.28
2023-03-03T05:17:50.317Z,99384.88
2023-03-03T05:19:25.627Z,99382.13
2023-03-03T05:20:59.032Z,99386.50
2023-03-03T05:22:32.207Z,99386.56
2023-03-03T05:24:05.945Z,99397.00
2023-03-03T05:25:39.329Z,99389.97
2023-03-03T05:27:12.830Z,99393.47
2023-03-03T05:28:46.007Z,99395.25
2023-03-03T05:30:19.317Z,99391.81
2023-03-03T05:31:52.870Z,99386.63
2023-03-03T05:33:26.494Z,99391.88
2023-03-03T05:35:00.983Z,99386.56
2023-03-03T05:36:33.221Z,99388.34
2023-03-03T05:38:06.470Z,99381.25
2023-03-03T05:39:38.966Z,99390.84
2023-03-03T05:41:12.236Z,99389.97
2023-03-03T05:42:45.606Z,99394.28
2023-03-03T05:44:20.679Z,99393.44
2023-03-03T05:45:56.902Z,99392.59
2023-03-03T05:47:30.893Z,99388.28
2023-03-03T05:49:04.286Z,99390.06
2023-03-03T05:50:39.583Z,99391.81
2023-03-03T05:52:12.900Z,99388.28
2023-03-03T05:53:46.090Z,99392.66
2023-03-03T05:55:20.019Z,99393.59
2023-03-03T05:56:53.111Z,99390.00
2023-03-03T05:58:27.567Z,99387.31
2023-03-03T06:00:00.696Z,99389.03
2023-03-03T06:01:34.112Z,99389.97
2023-03-03T06:03:07.527Z,99387.25
2023-03-03T06:04:41.203Z,99389.75
2023-03-03T06:06:17.156Z,99382.69
2023-03-03T06:07:50.476Z,99380.81
2023-03-03T06:09:23.694Z,99382.47
2023-03-03T06:10:56.896Z,99381.56
2023-03-03T06:12:30.754Z,99375.44
2023-03-03T06:14:04.114Z,99385.91
2023-03-03T06:15:37.383Z,99389.25
2023-03-03T06:17:10.863Z,99385.59
2023-03-03T06:18:44.075Z,99383.72
2023-03-03T06:20:17.884Z,99388.91
2023-03-03T06:21:52.426Z,99384.44
2023-03-03T06:23:25.704Z,99380.06
2023-03-03T06:24:58.894Z,99383.53
2023-03-03T06:26:33.446Z,99385.19
2023-03-03T06:28:06.638Z,99385.06
2023-03-03T06:29:39.872Z,99377.13
2023-03-03T06:31:13.134Z,99376.19
2023-03-03T06:32:46.902Z,99385.75
2023-03-03T06:34:20.341Z,99383.09
2023-03-03T06:35:55.625Z,99384.78
2023-03-03T06:37:30.155Z,99387.31
2023-03-03T06:39:04.056Z,99387.22
2023-03-03T06:40:37.464Z,99389.00
2023-03-03T06:42:10.887Z,99389.72
2023-03-03T06:43:44.230Z,99386.19
2023-03-03T06:45:18.266Z,99379.25
2023-03-03T06:46:51.837Z,99391.50
2023-03-03T06:48:25.124Z,99384.53
2023-03-03T06:49:58.210Z,99388.03
2023-03-03T06:51:35.361Z,99385.34
2023-03-03T06:53:14.779Z,99393.09
2023-03-03T06:54:47.979Z,99387.91
2023-03-03T06:56:21.210Z,99384.28
2023-03-03T06:57:56.090Z,99386.28
2023-03-03T06:59:29.747Z,99382.78
2023-03-03T07:01:03.622Z,99382.00
2023-03-03T07:02:36.840Z,99382.78
2023-03-03T07:04:22.872Z,99387.22
2023-03-03T07:05:56.258Z,99388.88
2023-03-03T07:07:28.725Z,99388.72
2023-03-03T07:09:03.163Z,99386.88
2023-03-03T07:10:36.437Z,99382.50
2023-03-03T07:12:14.611Z,99389.50
2023-03-03T07:13:50.075Z,99385.00
2023-03-03T07:15:25.896Z,99387.53
2023-03-03T07:17:02.912Z,99390.94
2023-03-03T07:18:40.724Z,99382.91
2023-03-03T07:20:20.905Z,99386.34
2023-03-03T07:21:54.204Z,99376.59
2023-03-03T07:23:30.870Z,99378.22
2023-03-03T07:25:20.737Z,99374.63
2023-03-03T07:26:54.297Z,99372.03
2023-03-03T07:28:29.355Z,99370.50
2023-03-03T07:30:23.318Z,99371.69
2023-03-03T07:31:58.128Z,99371.91
2023-03-03T07:33:36.268Z,99358.22
2023-03-03T07:35:38.417Z,99363.53
2023-03-03T07:37:18.672Z,99364.44
2023-03-03T07:38:55.763Z,99365.13
2023-03-03T07:40:38.462Z,99366.66
2023-03-03T07:42:22.145Z,99366.56
2023-03-03T07:44:06.277Z,99365.72
2023-03-03T07:45:39.666Z,99362.03
2023-03-03T07:47:21.547Z,99360.94
2023-03-03T07:48:55.956Z,99362.69
2023-03-03T07:50:29.095Z,99357.34
2023-03-03T07:52:02.874Z,99362.69
2023-03-03T07:53:38.203Z,99361.00
2023-03-03T07:55:31.678Z,99359.97
2023-03-03T07:57:20.149Z,99357.16
2023-03-03T07:58:53.507Z,99360.66
2023-03-03T08:01:14.263Z,99362.22
2023-03-03T08:02:54.144Z,99362.31
2023-03-03T08:04:33.729Z,99362.13
2023-03-03T08:06:26.621Z,99361.25
2023-03-03T08:08:16.164Z,99362.06
2023-03-03T08:09:52.257Z,99358.47
2023-03-03T08:11:26.796Z,99358.38
2023-03-03T08:13:10.154Z,99349.44
2023-03-03T08:14:43.524Z,99354.56
2023-03-03T08:16:30.047Z,99345.75
2023-03-03T08:18:05.402Z,99345.75
2023-03-03T08:19:38.861Z,99346.34
2023-03-03T08:21:14.194Z,99344.44
2023-03-03T08:22:47.506Z,99334.63
2023-03-03T08:24:20.708Z,99344.88
2023-03-03T08:25:54.613Z,99341.13
2023-03-03T08:27:27.887Z,99343.47
2023-03-03T08:29:02.611Z,99332.13
2023-03-03T08:30:35.014Z,99335.66
2023-03-03T08:32:08.482Z,99331.84
2023-03-03T08:33:41.943Z,99336.31
2023-03-03T08:35:15.410Z,99328.31
2023-03-03T08:36:49.647Z,99326.38
2023-03-03T08:38:23.762Z,99324.31
2023-03-03T08:39:56.895Z,99328.47
2023-03-03T08:41:30.448Z,99326.63
2023-03-03T08:43:03.760Z,99321.94
2023-03-03T08:44:38.403Z,99323.00
2023-03-03T08:46:11.990Z,99309.09
2023-03-03T08:47:45.616Z,99319.59
2023-03-03T08:49:18.903Z,99320.34
2023-03-03T08:50:52.428Z,99316.66
2023-03-03T08:52:25.729Z,99319.94
2023-03-03T08:53:59.058Z,99319.00
2023-03-03T08:55:32.679Z,99330.22
2023-03-03T08:57:06.140Z,99315.91
2023-03-03T08:58:42.001Z,99320.19
2023-03-03T09:00:21.187Z,99317.47
2023-03-03T09:01:55.178Z,99315.44
2023-03-03T09:03:28.607Z,99313.50
2023-03-03T09:05:01.850Z,99311.19
2023-03-03T09:06:35.064Z,99314.22
2023-03-03T09:08:09.342Z,99309.03
2023-03-03T09:09:43.052Z,99300.56
2023-03-03T09:11:23.278Z,99298.66
2023-03-03T09:12:58.723Z,99302.88
2023-03-03T09:14:31.887Z,99303.66
2023-03-03T09:16:14.404Z,99298.09
2023-03-03T09:17:48.823Z,99303.28
2023-03-03T09:19:26.896Z,99307.00
2023-03-03T09:21:00.028Z,99299.16
2023-03-03T09:22:39.410Z,99296.84
2023-03-03T09:24:25.567Z,99295.00
2023-03-03T09:26:00.607Z,99297.31
2023-03-03T09:27:38.284Z,99287.13
2023-03-03T09:29:21.106Z,99288.69
2023-03-03T09:30:55.893Z,99278.13
2023-03-03T09:32:39.358Z,99277.72
2023-03-03T09:34:20.893Z,99279.66
2023-03-03T09:35:59.460Z,99277.94
2023-03-03T09:37:41.190Z,99280.19
2023-03-03T09:39:21.925Z,99277.66
2023-03-03T09:41:21.408Z,99282.59
2023-03-03T09:43:04.606Z,99277.97
2023-03-03T09:45:05.933Z,99281.53
2023-03-03T09:46:46.896Z,99282.88
2023-03-03T09:48:47.904Z,99283.53
2023-03-03T09:50:31.109Z,99282.72
2023-03-03T09:52:31.360Z,99272.31
2023-03-03T09:54:18.864Z,99283.53
2023-03-03T09:56:00.198Z,99282.22
2023-03-03T09:58:10.000Z,99271.00
2023-03-03T10:00:10.271Z,99272.81
2023-03-03T10:01:59.466Z,99271.94
2023-03-03T10:04:07.185Z,99270.13
2023-03-03T10:05:50.750Z,99269.16
2023-03-03T10:07:43.047Z,99268.94
2023-03-03T10:09:46.406Z,99268.56
2023-03-03T10:11:24.688Z,99269.13
2023-03-03T10:13:09.204Z,99270.13
2023-03-03T10:15:13.138Z,99260.88
2023-03-03T10:16:58.226Z,99263.94
2023-03-03T10:18:36.733Z,99260.19
2023-03-03T10:20:25.198Z,99262.72
2023-03-03T10:22:08.232Z,99256.41
2023-03-03T10:23:58.680Z,99251.69
2023-03-03T10:25:42.882Z,99250.94
2023-03-03T10:27:31.275Z,99250.72
2023-03-03T10:29:22.072Z,99245.84
2023-03-03T10:31:13.615Z,99258.09
2023-03-03T10:32:55.576Z,99252.59
2023-03-03T10:34:53.002Z,99246.88
2023-03-03T10:36:50.858Z,99239.22
2023-03-03T10:38:56.856Z,99232.91
2023-03-03T10:40:36.599Z,99239.44
2023-03-03T10:42:27.521Z,99237.13
2023-03-03T10:44:26.145Z,99237.19
2023-03-03T10:46:20.731Z,99230.91
2023-03-03T10:48:17.695Z,99235.38
2023-03-03T10:50:04.882Z,99235.44
2023-03-03T10:51:54.874Z,99226.25
2023-03-03T10:53:35.461Z,99232.34
2023-03-03T10:55:21.614Z,99221.88
2023-03-03T10:57:04.336Z,99222.78
2023-03-03T10:58:47.822Z,99214.16
2023-03-03T11:00:32.123Z,99212.34
2023-03-03T11:02:14.456Z,99209.53
2023-03-03T11:04:11.669Z,99212.44
2023-03-03T11:05:52.837Z,99208.69
2023-03-03T11:07:32.697Z,99204.53
2023-03-03T11:09:19.935Z,99208.44
2023-03-03T11:11:01.269Z,99212.88
2023-03-03T11:12:47.855Z,99204.25
2023-03-03T11:14:58.123Z,99205.47
2023-03-03T11:16:43.116Z,99200.81
2023-03-03T11:18:34.965Z,99199.50
2023-03-03T11:20:20.749Z,99195.00
2023-03-03T11:22:07.877Z,99191.22
2023-03-03T11:24:02.353Z,99187.75
2023-03-03T11:25:45.293Z,99192.72
2023-03-03T11:27:39.343Z,99192.84
2023-03-03T11:29:28.211Z,99192.25
2023-03-03T11:31:14.673Z,99193.78
2023-03-03T11:32:54.899Z,99186.88
2023-03-03T11:34:47.970Z,99188.72
2023-03-03T11:36:28.924Z,99186.97
2023-03-03T11:38:14.515Z,99177.34
2023-03-03T11:39:49.659Z,99176.75
2023-03-03T11:41:33.382Z,99184.25
2023-03-03T11:43:26.232Z,99188.72
2023-03-03T11:45:19.110Z,99189.25
2023-03-03T11:46:57.816Z,99185.09
2023-03-03T11:48:38.192Z,99178.59
2023-03-03T11:50:21.551Z,99185.25
2023-03-03T11:52:05.622Z,99175.13
2023-03-03T11:53:55.164Z,99189.44
2023-03-03T11:55:32.008Z,99190.97
2023-03-03T11:57:20.491Z,99176.16
2023-03-03T11:59:05.177Z,99184.69
2023-03-03T12:00:46.915Z,99186.28
2023-03-03T12:02:47.028Z,99186.56
2023-03-03T12:04:23.388Z,99182.97
2023-03-03T12:06:04.933Z,99181.28
2023-03-03T12:07:46.834Z,99191.47
2023-03-03T12:09:41.553Z,99182.78
2023-03-03T12:11:24.042Z,99193.00
2023-03-03T12:13:06.002Z,99186.88
2023-03-03T12:14:55.334Z,99191.19
2023-03-03T12:16:41.987Z,99188.34
2023-03-03T12:18:36.648Z,99192.06
2023-03-03T12:20:19.279Z,99192.78
2023-03-03T12:22:07.943Z,99184.16
2023-03-03T12:23:58.087Z,99183.16
2023-03-03T12:25:38.892Z,99186.88
2023-03-03T12:27:21.049Z,99190.19
2023-03-03T12:28:59.832Z,99187.88
2023-03-03T12:30:50.821Z,99187.38
2023-03-03T12:32:36.663Z,99193.44
2023-03-03T12:34:21.506Z,99196.13
2023-03-03T12:36:05.995Z,99190.25
2023-03-03T12:37:52.602Z,99188.63
2023-03-03T12:39:45.563Z,99199.25
2023-03-03T12:41:27.157Z,99204.53
2023-03-03T12:43:19.124Z,99195.53
2023-03-03T12:45:08.515Z,99195.31
2023-03-03T12:46:47.422Z,99199.50
2023-03-03T12:48:25.353Z,99200.09
2023-03-03T12:50:14.532Z,99205.56
2023-03-03T12:52:05.481Z,99193.34
2023-03-03T12:54:05.430Z,99188.50
2023-03-03T12:55:50.858Z,99189.69
2023-03-03T12:57:36.089Z,99184.56
2023-03-03T12:59:18.378Z,99186.19
2023-03-03T13:01:00.953Z,99187.91
2023-03-03T13:02:45.046Z,99187.13
2023-03-03T13:04:33.772Z,99191.56
2023-03-03T13:06:19.563Z,99189.75
2023-03-03T13:08:02.951Z,99195.81
2023-03-03T13:09:48.548Z,99192.91
2023-03-03T13:11:37.839Z,99197.19
2023-03-03T13:13:19.090Z,99191.97
2023-03-03T13:14:56.380Z,99203.16
2023-03-03T13:16:41.590Z,99202.97
2023-03-03T13:18:31.160Z,99206.41
2023-03-03T13:20:14.522Z,99211.59
2023-03-03T13:21:53.830Z,99192.34
2023-03-03T13:23:43.199Z,99199.44
2023-03-03T13:25:35.619Z,99203.06
2023-03-03T13:27:14.599Z,99206.41
2023-03-03T13:29:00.596Z,99201.72
2023-03-03T13:30:36.755Z,99202.53
2023-03-03T13:32:16.494Z,99203.22
2023-03-03T13:33:55.664Z,99190.94
2023-03-03T13:35:41.527Z,99198.59
2023-03-03T13:37:20.906Z,99191.59
2023-03-03T13:38:58.984Z,99193.22
2023-03-03T13:40:42.318Z,99192.44
2023-03-03T13:42:24.967Z,99192.44
2023-03-03T13:44:03.367Z,99187.19
2023-03-03T13:45:43.933Z,99187.97
2023-03-03T13:47:25.845Z,99189.09
2023-03-03T13:49:29.090Z,99191.69
2023-03-03T13:51:10.634Z,99192.53
2023-03-03T13:52:53.287Z,99187.28
2023-03-03T13:54:45.873Z,99193.31
2023-03-03T13:56:32.424Z,99191.59
2023-03-03T13:58:21.290Z,99193.44
2023-03-03T14:00:02.897Z,99194.25
2023-03-03T14:01:59.161Z,99199.56
2023-03-03T14:04:06.385Z,99189.16
2023-03-03T14:05:45.851Z,99194.56
2023-03-03T14:07:27.932Z,99191.31
2023-03-03T14:09:34.868Z,99186.09
2023-03-03T14:11:13.204Z,99201.06
2023-03-03T14:12:52.908Z,99188.09
2023-03-03T14:14:40.196Z,99190.59
2023-03-03T14:16:21.757Z,99190.84
2023-03-03T14:18:32.388Z,99181.41
2023-03-03T14:20:20.160Z,99178.88
2023-03-03T14:22:07.520Z,99173.69
2023-03-03T14:23:51.619Z,99178.97
2023-03-03T14:25:25.460Z,99173.69
2023-03-03T14:27:00.760Z,99183.44
2023-03-03T14:28:41.078Z,99173.91
2023-03-03T14:30:30.660Z,99174.81
2023-03-03T14:32:25.136Z,99174.88
2023-03-03T14:34:03.194Z,99182.59
2023-03-03T14:35:39.988Z,99179.84
2023-03-03T14:37:28.680Z,99185.78
2023-03-03T14:39:02.611Z,99180.41
2023-03-03T14:40:39.006Z,99171.44
2023-03-03T14:42:16.079Z,99175.16
2023-03-03T14:43:59.529Z,99179.44
2023-03-03T14:45:36.229Z,99175.16
2023-03-03T14:47:23.884Z,99182.00
2023-03-03T14:48:59.385Z,99180.97
2023-03-03T14:50:36.636Z,99185.34
2023-03-03T14:52:22.588Z,99178.22
2023-03-03T14:53:58.142Z,99182.53
2023-03-03T14:55:37.125Z,99188.63
2023-03-03T14:57:16.798Z,99182.50
2023-03-03T14:58:52.218Z,99188.63
2023-03-03T15:00:35.923Z,99193.78
2023-03-03T15:02:33.343Z,99191.19
2023-03-03T15:04:11.620Z,99190.41
2023-03-03T15:05:51.153Z,99185.16
2023-03-03T15:07:34.512Z,99182.66
2023-03-03T15:09:36.800Z,99191.34
2023-03-03T15:11:26.771Z,99190.44
2023-03-03T15:13:09.898Z,99187.84
2023-03-03T15:14:47.171Z,99193.25
2023-03-03T15:16:23.579Z,99196.84
2023-03-03T15:18:04.400Z,99186.34
2023-03-03T15:19:50.432Z,99191.53
2023-03-03T15:21:28.238Z,99195.88
2023-03-03T15:23:26.884Z,99186.28
2023-03-03T15:25:05.693Z,99188.34
2023-03-03T15:26:48.535Z,99187.53
2023-03-03T15:28:36.203Z,99181.44
2023-03-03T15:30:22.729Z,99188.50
2023-03-03T15:32:03.231Z,99180.72
2023-03-03T15:33:47.138Z,99180.00
2023-03-03T15:35:37.880Z,99178.22
2023-03-03T15:37:28.701Z,99179.22
2023-03-03T15:39:11.219Z,99175.94
2023-03-03T15:40:50.119Z,99177.75
2023-03-03T15:42:28.301Z,99189.91
2023-03-03T15:44:12.592Z,99182.84
2023-03-03T15:45:52.817Z,99181.81
2023-03-03T15:47:42.418Z,99185.13
2023-03-03T15:49:31.023Z,99185.06
2023-03-03T15:51:14.646Z,99183.19
2023-03-03T15:52:57.626Z,99191.06
2023-03-03T15:54:43.331Z,99184.06
2023-03-03T15:56:31.045Z,99189.34
2023-03-03T15:58:33.293Z,99189.25
2023-03-03T16:00:26.730Z,99189.25
2023-03-03T16:02:13.253Z,99186.75
2023-03-03T16:03:52.392Z,99186.84
2023-03-03T16:05:40.439Z,99192.03
2023-03-03T16:07:30.624Z,99186.78
2023-03-03T16:09:10.595Z,99198.88
2023-03-03T16:10:55.816Z,99196.25
2023-03-03T16:12:41.412Z,99202.22
2023-03-03T16:14:35.631Z,99206.88
2023-03-03T16:16:21.685Z,99203.44
2023-03-03T16:18:02.518Z,99204.28
2023-03-03T16:19:44.753Z,99200.78
2023-03-03T16:21:48.465Z,99201.59
2023-03-03T16:23:36.128Z,99199.00
2023-03-03T16:25:30.121Z,99208.69
2023-03-03T16:27:12.245Z,99204.31
2023-03-03T16:28:57.894Z,99212.22
2023-03-03T16:30:35.924Z,99219.22
2023-03-03T16:32:16.052Z,99224.47
2023-03-03T16:33:56.107Z,99215.69
2023-03-03T16:35:35.050Z,99222.66
2023-03-03T16:37:17.443Z,99226.13
2023-03-03T16:38:59.478Z,99229.69
2023-03-03T16:40:37.970Z,99233.13
2023-03-03T16:42:23.835Z,99234.94
2023-03-03T16:44:05.747Z,99230.56
2023-03-03T16:45:41.628Z,99236.69
2023-03-03T16:47:35.909Z,99241.84
2023-03-03T16:49:18.494Z,99240.97
2023-03-03T16:51:04.063Z,99238.31
2023-03-03T16:52:43.954Z,99243.56
2023-03-03T16:54:26.587Z,99247.97
2023-03-03T16:56:07.960Z,99252.34
2023-03-03T16:57:52.533Z,99256.66
2023-03-03T16:59:51.935Z,99252.28
2023-03-03T17:01:33.480Z,99250.66
2023-03-03T17:03:29.527Z,99248.00
2023-03-03T17:05:09.496Z,99256.94
2023-03-03T17:06:49.859Z,99258.91
2023-03-03T17:08:38.552Z,99257.00
2023-03-03T17:10:24.630Z,99259.63
2023-03-03T17:12:09.974Z,99257.81
2023-03-03T17:14:08.921Z,99256.03
2023-03-03T17:15:53.308Z,99258.66
2023-03-03T17:17:37.732Z,99263.00
2023-03-03T17:19:23.143Z,99259.47
2023-03-03T17:21:00.121Z,99264.88
2023-03-03T17:22:46.488Z,99262.34
2023-03-03T17:24:25.812Z,99266.88
2023-03-03T17:26:10.853Z,99265.22
2023-03-03T17:28:00.463Z,99268.84
2023-03-03T17:29:55.270Z,99276.66
2023-03-03T17:31:37.997Z,99261.78
2023-03-03T17:33:25.192Z,99273.97
2023-03-03T17:35:13.365Z,99266.06
2023-03-03T17:37:03.401Z,99273.94
2023-03-03T17:38:48.981Z,99266.00
2023-03-03T17:40:52.580Z,99267.69
2023-03-03T17:42:40.953Z,99272.19
2023-03-03T17:44:21.725Z,99277.41
2023-03-03T17:46:01.000Z,99277.47
2023-03-03T17:47:51.917Z,99279.28
2023-03-03T17:49:51.601Z,99275.81
2023-03-03T17:51:46.164Z,99281.97
2023-03-03T17:53:52.772Z,99280.28
2023-03-03T17:55:45.517Z,99286.34
2023-03-03T17:57:34.788Z,99278.56
2023-03-03T17:59:23.651Z,99291.03
2023-03-03T18:01:13.300Z,99297.22
2023-03-03T18:03:20.099Z,99300.75
2023-03-03T18:05:25.571Z,99305.19
2023-03-03T18:07:28.254Z,99307.84
2023-03-03T18:09:14.913Z,99306.09
2023-03-03T18:11:20.535Z,99307.75
2023-03-03T18:13:02.977Z,99314.84
2023-03-03T18:15:03.641Z,99314.84
2023-03-03T18:16:55.844Z,99320.09
2023-03-03T18:18:49.210Z,99318.34
2023-03-03T18:20:45.212Z,99324.56
2023-03-03T18:22:23.783Z,99327.16
2023-03-03T18:24:28.282Z,99318.34
2023-03-03T18:26:03.132Z,99326.22
2023-03-03T18:27:39.538Z,99320.00
2023-03-03T18:29:25.882Z,99325.25
2023-03-03T18:31:00.560Z,99318.28
2023-03-03T18:32:46.529Z,99325.38
2023-03-03T18:34:33.139Z,99318.28
2023-03-03T18:36:15.780Z,99318.34
2023-03-03T18:37:49.003Z,99310.41
2023-03-03T18:39:43.465Z,99320.00
2023-03-03T18:41:24.375Z,99312.09
2023-03-03T18:42:57.033Z,99315.59
2023-03-03T18:44:31.785Z,99314.66
2023-03-03T18:46:05.395Z,99316.38
2023-03-03T18:48:04.037Z,99319.81
2023-03-03T18:49:55.531Z,99321.56
2023-03-03T18:52:14.361Z,99318.06
2023-03-03T18:54:02.580Z,99319.78
2023-03-03T18:55:42.278Z,99318.06
2023-03-03T18:57:17.924Z,99313.66
2023-03-03T18:58:52.478Z,99318.91
2023-03-03T19:00:30.246Z,99320.72
2023-03-03T19:02:19.060Z,99323.47
2023-03-03T19:04:17.255Z,99317.38
2023-03-03T19:05:54.416Z,99326.91
2023-03-03T19:07:30.612Z,99316.31
2023-03-03T19:09:04.949Z,99320.69
2023-03-03T19:10:56.378Z,99326.84
2023-03-03T19:12:48.949Z,99321.66
2023-03-03T19:14:33.583Z,99320.84
2023-03-03T19:16:08.619Z,99321.56
2023-03-03T19:17:54.397Z,99319.78
2023-03-03T19:19:34.370Z,99321.56
2023-03-03T19:21:21.258Z,99316.31
2023-03-03T19:23:05.922Z,99317.06
2023-03-03T19:24:39.471Z,99318.91
2023-03-03T19:26:46.325Z,99316.22
2023-03-03T19:28:39.201Z,99315.47
2023-03-03T19:30:34.205Z,99324.16
2023-03-03T19:32:25.331Z,99320.63
2023-03-03T19:34:03.609Z,99316.31
2023-03-03T19:35:47.414Z,99320.53
2023-03-03T19:37:36.339Z,99324.03
2023-03-03T19:39:36.673Z,99323.22
2023-03-03T19:41:28.682Z,99317.16
2023-03-03T19:43:13.520Z,99326.00
2023-03-03T19:45:00.677Z,99327.75